sensor_id;sensor_type;location;lat;lon;timestamp;P1;durP1;ratioP1;P2;durP2;ratioP2
11076;SDS011;5591;42.626;23.380;2022-10-22T00:00:31;14.63;;;11.73;;
11076;SDS011;5591;42.626;23.380;2022-10-22T00:02:58;12.37;;;10.00;;
11076;SDS011;5591;42.626;23.380;2022-10-22T00:05:25;14.87;;;10.53;;
11076;SDS011;5591;42.626;23.380;2022-10-22T00:07:52;11.60;;;10.23;;
11076;SDS011;5591;42.626;23.380;2022-10-22T00:10:20;14.33;;;10.70;;
11076;SDS011;5591;42.626;23.380;2022-10-22T00:12:47;11.87;;;9.87;;
11076;SDS011;5591;42.626;23.380;2022-10-22T00:15:14;15.10;;;10.13;;
11076;SDS011;5591;42.626;23.380;2022-10-22T00:17:40;13.03;;;10.70;;
11076;SDS011;5591;42.626;23.380;2022-10-22T00:20:08;12.70;;;10.77;;
11076;SDS011;5591;42.626;23.380;2022-10-22T00:22:35;15.60;;;11.53;;
11076;SDS011;5591;42.626;23.380;2022-10-22T00:25:02;15.17;;;11.33;;
11076;SDS011;5591;42.626;23.380;2022-10-22T00:27:30;15.00;;;11.13;;
11076;SDS011;5591;42.626;23.380;2022-10-22T00:29:57;13.13;;;11.30;;
11076;SDS011;5591;42.626;23.380;2022-10-22T00:32:23;19.67;;;11.50;;
11076;SDS011;5591;42.626;23.380;2022-10-22T00:34:50;13.97;;;11.33;;
11076;SDS011;5591;42.626;23.380;2022-10-22T00:37:17;12.67;;;10.97;;
11076;SDS011;5591;42.626;23.380;2022-10-22T00:39:44;14.50;;;11.10;;
11076;SDS011;5591;42.626;23.380;2022-10-22T00:42:11;13.80;;;11.03;;
11076;SDS011;5591;42.626;23.380;2022-10-22T00:45:07;12.00;;;10.13;;
11076;SDS011;5591;42.626;23.380;2022-10-22T00:47:45;10.97;;;9.47;;
11076;SDS011;5591;42.626;23.380;2022-10-22T00:50:17;13.33;;;9.70;;
11076;SDS011;5591;42.626;23.380;2022-10-22T00:52:46;12.67;;;10.17;;
11076;SDS011;5591;42.626;23.380;2022-10-22T00:55:15;13.13;;;10.30;;
11076;SDS011;5591;42.626;23.380;2022-10-22T00:57:43;12.27;;;10.90;;
11076;SDS011;5591;42.626;23.380;2022-10-22T01:00:12;11.50;;;10.13;;
11076;SDS011;5591;42.626;23.380;2022-10-22T01:02:40;11.97;;;10.60;;
11076;SDS011;5591;42.626;23.380;2022-10-22T01:05:07;11.67;;;10.23;;
11076;SDS011;5591;42.626;23.380;2022-10-22T01:07:34;11.63;;;10.43;;
11076;SDS011;5591;42.626;23.380;2022-10-22T01:10:07;15.40;;;10.27;;
11076;SDS011;5591;42.626;23.380;2022-10-22T01:12:43;12.23;;;10.10;;
11076;SDS011;5591;42.626;23.380;2022-10-22T01:15:28;14.70;;;10.60;;
11076;SDS011;5591;42.626;23.380;2022-10-22T01:18:04;12.27;;;10.63;;
11076;SDS011;5591;42.626;23.380;2022-10-22T01:20:40;12.83;;;10.37;;
11076;SDS011;5591;42.626;23.380;2022-10-22T01:23:21;12.90;;;10.60;;
11076;SDS011;5591;42.626;23.380;2022-10-22T01:25:59;12.53;;;10.90;;
11076;SDS011;5591;42.626;23.380;2022-10-22T01:28:45;12.07;;;10.70;;
11076;SDS011;5591;42.626;23.380;2022-10-22T01:31:21;13.73;;;10.77;;
11076;SDS011;5591;42.626;23.380;2022-10-22T01:33:50;13.27;;;10.67;;
11076;SDS011;5591;42.626;23.380;2022-10-22T01:36:19;12.43;;;10.27;;
11076;SDS011;5591;42.626;23.380;2022-10-22T01:38:47;12.47;;;10.27;;
11076;SDS011;5591;42.626;23.380;2022-10-22T01:41:16;14.70;;;10.47;;
11076;SDS011;5591;42.626;23.380;2022-10-22T01:43:45;12.53;;;10.57;;
11076;SDS011;5591;42.626;23.380;2022-10-22T01:46:12;13.60;;;10.50;;
11076;SDS011;5591;42.626;23.380;2022-10-22T01:48:44;12.03;;;9.93;;
11076;SDS011;5591;42.626;23.380;2022-10-22T01:51:24;11.50;;;10.30;;
11076;SDS011;5591;42.626;23.380;2022-10-22T01:54:00;11.87;;;10.00;;
11076;SDS011;5591;42.626;23.380;2022-10-22T01:56:39;11.00;;;9.83;;
11076;SDS011;5591;42.626;23.380;2022-10-22T01:59:21;10.70;;;9.23;;
11076;SDS011;5591;42.626;23.380;2022-10-22T02:01:58;10.70;;;9.60;;
11076;SDS011;5591;42.626;23.380;2022-10-22T02:04:32;11.77;;;9.97;;
11076;SDS011;5591;42.626;23.380;2022-10-22T02:07:07;12.23;;;10.33;;
11076;SDS011;5591;42.626;23.380;2022-10-22T02:09:37;12.43;;;10.13;;
11076;SDS011;5591;42.626;23.380;2022-10-22T02:12:06;12.53;;;10.70;;
11076;SDS011;5591;42.626;23.380;2022-10-22T02:14:38;13.63;;;10.53;;
11076;SDS011;5591;42.626;23.380;2022-10-22T02:17:09;11.43;;;10.13;;
11076;SDS011;5591;42.626;23.380;2022-10-22T02:19:41;12.60;;;10.13;;
11076;SDS011;5591;42.626;23.380;2022-10-22T02:22:12;12.77;;;10.57;;
11076;SDS011;5591;42.626;23.380;2022-10-22T02:24:39;13.33;;;10.87;;
11076;SDS011;5591;42.626;23.380;2022-10-22T02:27:07;14.73;;;11.27;;
11076;SDS011;5591;42.626;23.380;2022-10-22T02:29:39;16.00;;;11.30;;
11076;SDS011;5591;42.626;23.380;2022-10-22T02:32:11;14.93;;;10.97;;
11076;SDS011;5591;42.626;23.380;2022-10-22T02:34:45;13.17;;;10.53;;
11076;SDS011;5591;42.626;23.380;2022-10-22T02:37:14;14.57;;;11.87;;
11076;SDS011;5591;42.626;23.380;2022-10-22T02:39:42;13.83;;;11.90;;
11076;SDS011;5591;42.626;23.380;2022-10-22T02:42:10;16.13;;;11.90;;
11076;SDS011;5591;42.626;23.380;2022-10-22T02:44:39;14.23;;;11.47;;
11076;SDS011;5591;42.626;23.380;2022-10-22T02:47:05;15.70;;;11.97;;
11076;SDS011;5591;42.626;23.380;2022-10-22T02:49:32;13.23;;;11.83;;
11076;SDS011;5591;42.626;23.380;2022-10-22T02:51:59;13.23;;;11.00;;
11076;SDS011;5591;42.626;23.380;2022-10-22T02:54:26;12.70;;;10.53;;
11076;SDS011;5591;42.626;23.380;2022-10-22T02:56:53;13.80;;;11.03;;
11076;SDS011;5591;42.626;23.380;2022-10-22T02:59:20;12.37;;;11.07;;
11076;SDS011;5591;42.626;23.380;2022-10-22T03:01:48;17.03;;;11.90;;
11076;SDS011;5591;42.626;23.380;2022-10-22T03:04:15;15.17;;;11.60;;
11076;SDS011;5591;42.626;23.380;2022-10-22T03:06:41;13.70;;;11.43;;
11076;SDS011;5591;42.626;23.380;2022-10-22T03:09:09;17.20;;;13.50;;
11076;SDS011;5591;42.626;23.380;2022-10-22T03:11:35;15.93;;;13.53;;
11076;SDS011;5591;42.626;23.380;2022-10-22T03:14:02;17.87;;;12.03;;
11076;SDS011;5591;42.626;23.380;2022-10-22T03:16:29;16.50;;;13.00;;
11076;SDS011;5591;42.626;23.380;2022-10-22T03:18:57;16.93;;;13.53;;
11076;SDS011;5591;42.626;23.380;2022-10-22T03:21:27;18.37;;;14.47;;
11076;SDS011;5591;42.626;23.380;2022-10-22T03:23:57;16.77;;;13.63;;
11076;SDS011;5591;42.626;23.380;2022-10-22T03:26:25;18.27;;;13.67;;
11076;SDS011;5591;42.626;23.380;2022-10-22T03:28:52;15.97;;;12.57;;
11076;SDS011;5591;42.626;23.380;2022-10-22T03:31:19;16.07;;;13.27;;
11076;SDS011;5591;42.626;23.380;2022-10-22T03:33:46;16.63;;;12.63;;
11076;SDS011;5591;42.626;23.380;2022-10-22T03:36:14;15.47;;;12.83;;
11076;SDS011;5591;42.626;23.380;2022-10-22T03:38:41;13.33;;;11.93;;
11076;SDS011;5591;42.626;23.380;2022-10-22T03:41:08;15.80;;;12.10;;
11076;SDS011;5591;42.626;23.380;2022-10-22T03:43:35;13.57;;;11.90;;
11076;SDS011;5591;42.626;23.380;2022-10-22T03:46:04;15.07;;;12.03;;
11076;SDS011;5591;42.626;23.380;2022-10-22T03:48:31;15.73;;;12.60;;
11076;SDS011;5591;42.626;23.380;2022-10-22T03:50:58;13.10;;;11.60;;
11076;SDS011;5591;42.626;23.380;2022-10-22T03:53:26;15.73;;;12.87;;
11076;SDS011;5591;42.626;23.380;2022-10-22T03:55:53;13.70;;;10.73;;
11076;SDS011;5591;42.626;23.380;2022-10-22T03:58:20;13.27;;;11.43;;
11076;SDS011;5591;42.626;23.380;2022-10-22T04:00:46;17.53;;;13.40;;
11076;SDS011;5591;42.626;23.380;2022-10-22T04:03:13;15.50;;;11.63;;
11076;SDS011;5591;42.626;23.380;2022-10-22T04:05:40;14.77;;;11.63;;
11076;SDS011;5591;42.626;23.380;2022-10-22T04:08:07;12.00;;;10.53;;
11076;SDS011;5591;42.626;23.380;2022-10-22T04:10:35;13.37;;;11.07;;
11076;SDS011;5591;42.626;23.380;2022-10-22T04:13:02;13.43;;;11.70;;
11076;SDS011;5591;42.626;23.380;2022-10-22T04:15:28;15.77;;;12.23;;
11076;SDS011;5591;42.626;23.380;2022-10-22T04:17:56;13.77;;;10.87;;
11076;SDS011;5591;42.626;23.380;2022-10-22T04:20:23;14.20;;;11.37;;
11076;SDS011;5591;42.626;23.380;2022-10-22T04:22:50;12.20;;;10.90;;
11076;SDS011;5591;42.626;23.380;2022-10-22T04:25:16;15.23;;;11.73;;
11076;SDS011;5591;42.626;23.380;2022-10-22T04:27:45;13.23;;;11.23;;
11076;SDS011;5591;42.626;23.380;2022-10-22T04:30:12;17.53;;;13.37;;
11076;SDS011;5591;42.626;23.380;2022-10-22T04:32:39;14.67;;;12.10;;
11076;SDS011;5591;42.626;23.380;2022-10-22T04:35:06;15.10;;;12.30;;
11076;SDS011;5591;42.626;23.380;2022-10-22T04:37:33;14.40;;;11.77;;
11076;SDS011;5591;42.626;23.380;2022-10-22T04:40:00;16.03;;;13.00;;
11076;SDS011;5591;42.626;23.380;2022-10-22T04:42:26;13.53;;;11.43;;
11076;SDS011;5591;42.626;23.380;2022-10-22T04:44:55;15.43;;;12.03;;
11076;SDS011;5591;42.626;23.380;2022-10-22T04:47:21;12.53;;;11.03;;
11076;SDS011;5591;42.626;23.380;2022-10-22T04:49:48;17.73;;;14.30;;
11076;SDS011;5591;42.626;23.380;2022-10-22T04:52:15;22.73;;;15.83;;
11076;SDS011;5591;42.626;23.380;2022-10-22T04:54:42;16.50;;;12.53;;
11076;SDS011;5591;42.626;23.380;2022-10-22T04:57:08;15.57;;;13.23;;
11076;SDS011;5591;42.626;23.380;2022-10-22T04:59:35;13.57;;;11.27;;
11076;SDS011;5591;42.626;23.380;2022-10-22T05:02:03;15.67;;;12.53;;
11076;SDS011;5591;42.626;23.380;2022-10-22T05:04:30;14.53;;;11.87;;
11076;SDS011;5591;42.626;23.380;2022-10-22T05:06:57;13.33;;;11.93;;
11076;SDS011;5591;42.626;23.380;2022-10-22T05:09:24;14.20;;;11.67;;
11076;SDS011;5591;42.626;23.380;2022-10-22T05:11:51;14.90;;;11.07;;
11076;SDS011;5591;42.626;23.380;2022-10-22T05:14:19;13.90;;;11.83;;
11076;SDS011;5591;42.626;23.380;2022-10-22T05:16:48;14.17;;;11.03;;
11076;SDS011;5591;42.626;23.380;2022-10-22T05:19:17;14.20;;;11.87;;
11076;SDS011;5591;42.626;23.380;2022-10-22T05:21:45;13.10;;;11.00;;
11076;SDS011;5591;42.626;23.380;2022-10-22T05:24:12;14.00;;;11.83;;
11076;SDS011;5591;42.626;23.380;2022-10-22T05:26:39;13.77;;;11.03;;
11076;SDS011;5591;42.626;23.380;2022-10-22T05:29:06;12.30;;;11.00;;
11076;SDS011;5591;42.626;23.380;2022-10-22T05:31:33;15.77;;;10.53;;
11076;SDS011;5591;42.626;23.380;2022-10-22T05:34:00;12.47;;;10.80;;
11076;SDS011;5591;42.626;23.380;2022-10-22T05:36:28;13.53;;;11.57;;
11076;SDS011;5591;42.626;23.380;2022-10-22T05:38:55;16.03;;;11.23;;
11076;SDS011;5591;42.626;23.380;2022-10-22T05:41:23;15.67;;;11.70;;
11076;SDS011;5591;42.626;23.380;2022-10-22T05:43:52;15.73;;;12.13;;
11076;SDS011;5591;42.626;23.380;2022-10-22T05:46:20;16.43;;;12.50;;
11076;SDS011;5591;42.626;23.380;2022-10-22T05:48:48;15.90;;;11.60;;
11076;SDS011;5591;42.626;23.380;2022-10-22T05:51:15;18.23;;;13.90;;
11076;SDS011;5591;42.626;23.380;2022-10-22T05:53:44;32.53;;;26.17;;
11076;SDS011;5591;42.626;23.380;2022-10-22T05:56:12;23.73;;;17.17;;
11076;SDS011;5591;42.626;23.380;2022-10-22T05:58:41;22.13;;;17.30;;
11076;SDS011;5591;42.626;23.380;2022-10-22T06:01:11;18.37;;;15.53;;
11076;SDS011;5591;42.626;23.380;2022-10-22T06:03:38;23.47;;;14.70;;
11076;SDS011;5591;42.626;23.380;2022-10-22T06:06:06;20.10;;;13.70;;
11076;SDS011;5591;42.626;23.380;2022-10-22T06:08:43;18.87;;;13.30;;
11076;SDS011;5591;42.626;23.380;2022-10-22T06:11:11;17.10;;;13.73;;
11076;SDS011;5591;42.626;23.380;2022-10-22T06:13:38;20.07;;;14.07;;
11076;SDS011;5591;42.626;23.380;2022-10-22T06:16:05;22.63;;;13.17;;
11076;SDS011;5591;42.626;23.380;2022-10-22T06:18:32;20.30;;;14.97;;
11076;SDS011;5591;42.626;23.380;2022-10-22T06:21:02;18.37;;;15.10;;
11076;SDS011;5591;42.626;23.380;2022-10-22T06:23:30;22.17;;;14.33;;
11076;SDS011;5591;42.626;23.380;2022-10-22T06:25:58;26.07;;;15.87;;
11076;SDS011;5591;42.626;23.380;2022-10-22T06:28:25;28.80;;;19.10;;
11076;SDS011;5591;42.626;23.380;2022-10-22T06:30:52;28.73;;;20.53;;
11076;SDS011;5591;42.626;23.380;2022-10-22T06:33:19;27.40;;;20.80;;
11076;SDS011;5591;42.626;23.380;2022-10-22T06:35:45;26.83;;;20.73;;
11076;SDS011;5591;42.626;23.380;2022-10-22T06:38:12;31.63;;;21.10;;
11076;SDS011;5591;42.626;23.380;2022-10-22T06:40:39;28.67;;;22.37;;
11076;SDS011;5591;42.626;23.380;2022-10-22T06:43:09;27.43;;;22.03;;
11076;SDS011;5591;42.626;23.380;2022-10-22T06:45:35;29.73;;;22.13;;
11076;SDS011;5591;42.626;23.380;2022-10-22T06:48:03;27.80;;;21.23;;
11076;SDS011;5591;42.626;23.380;2022-10-22T06:50:30;29.57;;;21.80;;
11076;SDS011;5591;42.626;23.380;2022-10-22T06:52:59;32.13;;;22.60;;
11076;SDS011;5591;42.626;23.380;2022-10-22T06:55:26;26.67;;;21.10;;
11076;SDS011;5591;42.626;23.380;2022-10-22T06:57:53;29.40;;;21.37;;
11076;SDS011;5591;42.626;23.380;2022-10-22T07:00:21;27.33;;;21.40;;
11076;SDS011;5591;42.626;23.380;2022-10-22T07:02:52;30.63;;;21.60;;
11076;SDS011;5591;42.626;23.380;2022-10-22T07:05:19;30.47;;;21.13;;
11076;SDS011;5591;42.626;23.380;2022-10-22T07:07:46;26.07;;;20.70;;
11076;SDS011;5591;42.626;23.380;2022-10-22T07:10:13;29.37;;;23.87;;
11076;SDS011;5591;42.626;23.380;2022-10-22T07:12:40;29.80;;;21.60;;
11076;SDS011;5591;42.626;23.380;2022-10-22T07:15:07;31.77;;;20.73;;
11076;SDS011;5591;42.626;23.380;2022-10-22T07:17:35;26.77;;;20.27;;
11076;SDS011;5591;42.626;23.380;2022-10-22T07:20:02;33.27;;;22.77;;
11076;SDS011;5591;42.626;23.380;2022-10-22T07:22:30;30.43;;;24.33;;
11076;SDS011;5591;42.626;23.380;2022-10-22T07:24:57;28.47;;;20.47;;
11076;SDS011;5591;42.626;23.380;2022-10-22T07:27:23;26.10;;;20.17;;
11076;SDS011;5591;42.626;23.380;2022-10-22T07:29:50;27.57;;;24.27;;
11076;SDS011;5591;42.626;23.380;2022-10-22T07:32:17;39.87;;;30.80;;
11076;SDS011;5591;42.626;23.380;2022-10-22T07:34:45;29.40;;;21.40;;
11076;SDS011;5591;42.626;23.380;2022-10-22T07:37:12;33.03;;;23.50;;
11076;SDS011;5591;42.626;23.380;2022-10-22T07:39:39;26.37;;;19.80;;
11076;SDS011;5591;42.626;23.380;2022-10-22T07:42:05;25.23;;;20.00;;
11076;SDS011;5591;42.626;23.380;2022-10-22T07:44:32;25.77;;;19.60;;
11076;SDS011;5591;42.626;23.380;2022-10-22T07:46:59;23.53;;;19.47;;
11076;SDS011;5591;42.626;23.380;2022-10-22T07:49:26;29.03;;;19.77;;
11076;SDS011;5591;42.626;23.380;2022-10-22T07:51:54;24.33;;;18.83;;
11076;SDS011;5591;42.626;23.380;2022-10-22T07:54:21;23.70;;;19.27;;
11076;SDS011;5591;42.626;23.380;2022-10-22T07:56:48;25.80;;;19.37;;
11076;SDS011;5591;42.626;23.380;2022-10-22T07:59:15;24.27;;;19.47;;
11076;SDS011;5591;42.626;23.380;2022-10-22T08:01:42;24.07;;;19.00;;
11076;SDS011;5591;42.626;23.380;2022-10-22T08:04:10;22.70;;;18.73;;
11076;SDS011;5591;42.626;23.380;2022-10-22T08:06:37;25.57;;;19.00;;
11076;SDS011;5591;42.626;23.380;2022-10-22T08:09:05;23.40;;;18.73;;
11076;SDS011;5591;42.626;23.380;2022-10-22T08:11:32;20.43;;;18.23;;
11076;SDS011;5591;42.626;23.380;2022-10-22T08:13:59;20.83;;;17.77;;
11076;SDS011;5591;42.626;23.380;2022-10-22T08:16:26;20.17;;;16.80;;
11076;SDS011;5591;42.626;23.380;2022-10-22T08:18:52;23.37;;;19.10;;
11076;SDS011;5591;42.626;23.380;2022-10-22T08:21:19;19.80;;;17.30;;
11076;SDS011;5591;42.626;23.380;2022-10-22T08:23:46;23.57;;;17.90;;
11076;SDS011;5591;42.626;23.380;2022-10-22T08:26:14;23.13;;;17.83;;
11076;SDS011;5591;42.626;23.380;2022-10-22T08:28:42;24.97;;;18.27;;
11076;SDS011;5591;42.626;23.380;2022-10-22T08:31:09;24.73;;;18.73;;
11076;SDS011;5591;42.626;23.380;2022-10-22T08:33:36;21.70;;;18.40;;
11076;SDS011;5591;42.626;23.380;2022-10-22T08:36:03;24.57;;;20.63;;
11076;SDS011;5591;42.626;23.380;2022-10-22T08:38:31;23.13;;;18.17;;
11076;SDS011;5591;42.626;23.380;2022-10-22T08:41:02;22.63;;;18.30;;
11076;SDS011;5591;42.626;23.380;2022-10-22T08:43:43;21.77;;;17.80;;
11076;SDS011;5591;42.626;23.380;2022-10-22T08:46:26;26.53;;;18.53;;
11076;SDS011;5591;42.626;23.380;2022-10-22T08:49:00;20.80;;;17.30;;
11076;SDS011;5591;42.626;23.380;2022-10-22T08:51:32;26.23;;;18.20;;
11076;SDS011;5591;42.626;23.380;2022-10-22T08:54:16;23.00;;;17.40;;
11076;SDS011;5591;42.626;23.380;2022-10-22T08:56:52;20.10;;;17.13;;
11076;SDS011;5591;42.626;23.380;2022-10-22T08:59:33;21.13;;;17.97;;
11076;SDS011;5591;42.626;23.380;2022-10-22T09:02:12;24.80;;;17.67;;
11076;SDS011;5591;42.626;23.380;2022-10-22T09:04:47;25.53;;;18.20;;
11076;SDS011;5591;42.626;23.380;2022-10-22T09:07:20;28.23;;;22.07;;
11076;SDS011;5591;42.626;23.380;2022-10-22T09:09:48;23.30;;;18.97;;
11076;SDS011;5591;42.626;23.380;2022-10-22T09:12:17;21.10;;;17.00;;
11076;SDS011;5591;42.626;23.380;2022-10-22T09:14:47;20.97;;;16.30;;
11076;SDS011;5591;42.626;23.380;2022-10-22T09:17:15;19.60;;;16.10;;
11076;SDS011;5591;42.626;23.380;2022-10-22T09:19:54;18.53;;;15.93;;
11076;SDS011;5591;42.626;23.380;2022-10-22T09:22:31;22.23;;;15.30;;
11076;SDS011;5591;42.626;23.380;2022-10-22T09:25:09;18.53;;;15.57;;
11076;SDS011;5591;42.626;23.380;2022-10-22T09:27:45;22.43;;;15.10;;
11076;SDS011;5591;42.626;23.380;2022-10-22T09:30:15;21.83;;;15.40;;
11076;SDS011;5591;42.626;23.380;2022-10-22T09:32:44;16.97;;;15.17;;
11076;SDS011;5591;42.626;23.380;2022-10-22T09:35:12;20.57;;;15.03;;
11076;SDS011;5591;42.626;23.380;2022-10-22T09:37:46;17.70;;;15.00;;
11076;SDS011;5591;42.626;23.380;2022-10-22T09:40:15;18.10;;;15.70;;
11076;SDS011;5591;42.626;23.380;2022-10-22T09:42:42;21.27;;;16.20;;
11076;SDS011;5591;42.626;23.380;2022-10-22T09:45:16;23.77;;;15.47;;
11076;SDS011;5591;42.626;23.380;2022-10-22T09:47:46;21.93;;;15.23;;
11076;SDS011;5591;42.626;23.380;2022-10-22T09:50:21;24.13;;;18.00;;
11076;SDS011;5591;42.626;23.380;2022-10-22T09:52:57;28.63;;;24.63;;
11076;SDS011;5591;42.626;23.380;2022-10-22T09:55:26;30.43;;;24.33;;
11076;SDS011;5591;42.626;23.380;2022-10-22T09:57:53;23.37;;;17.17;;
11076;SDS011;5591;42.626;23.380;2022-10-22T10:00:23;17.97;;;15.30;;
11076;SDS011;5591;42.626;23.380;2022-10-22T10:02:52;20.37;;;14.93;;
11076;SDS011;5591;42.626;23.380;2022-10-22T10:05:25;20.30;;;14.37;;
11076;SDS011;5591;42.626;23.380;2022-10-22T10:07:54;15.57;;;13.93;;
11076;SDS011;5591;42.626;23.380;2022-10-22T10:10:26;19.37;;;13.63;;
11076;SDS011;5591;42.626;23.380;2022-10-22T10:13:00;16.00;;;14.30;;
11076;SDS011;5591;42.626;23.380;2022-10-22T10:15:36;17.40;;;13.77;;
11076;SDS011;5591;42.626;23.380;2022-10-22T10:18:11;18.33;;;12.63;;
11076;SDS011;5591;42.626;23.380;2022-10-22T10:20:48;14.63;;;12.87;;
11076;SDS011;5591;42.626;23.380;2022-10-22T10:23:25;25.17;;;17.90;;
11076;SDS011;5591;42.626;23.380;2022-10-22T10:25:59;18.93;;;15.57;;
11076;SDS011;5591;42.626;23.380;2022-10-22T10:28:34;26.10;;;13.50;;
11076;SDS011;5591;42.626;23.380;2022-10-22T10:31:25;19.30;;;15.20;;
11076;SDS011;5591;42.626;23.380;2022-10-22T10:34:01;19.63;;;14.07;;
11076;SDS011;5591;42.626;23.380;2022-10-22T10:36:41;16.00;;;13.03;;
11076;SDS011;5591;42.626;23.380;2022-10-22T10:39:16;18.50;;;12.63;;
11076;SDS011;5591;42.626;23.380;2022-10-22T10:41:50;14.80;;;12.60;;
11076;SDS011;5591;42.626;23.380;2022-10-22T10:44:32;18.30;;;13.93;;
11076;SDS011;5591;42.626;23.380;2022-10-22T10:47:11;16.87;;;13.97;;
11076;SDS011;5591;42.626;23.380;2022-10-22T10:49:47;16.70;;;12.87;;
11076;SDS011;5591;42.626;23.380;2022-10-22T10:52:19;17.37;;;12.20;;
11076;SDS011;5591;42.626;23.380;2022-10-22T10:54:56;16.10;;;11.67;;
11076;SDS011;5591;42.626;23.380;2022-10-22T10:57:35;17.27;;;11.60;;
11076;SDS011;5591;42.626;23.380;2022-10-22T11:00:09;14.13;;;10.63;;
11076;SDS011;5591;42.626;23.380;2022-10-22T11:03:02;12.10;;;10.70;;
11076;SDS011;5591;42.626;23.380;2022-10-22T11:05:44;11.93;;;9.70;;
11076;SDS011;5591;42.626;23.380;2022-10-22T11:08:19;11.50;;;9.70;;
11076;SDS011;5591;42.626;23.380;2022-10-22T11:10:49;12.70;;;10.70;;
11076;SDS011;5591;42.626;23.380;2022-10-22T11:13:21;11.40;;;10.07;;
11076;SDS011;5591;42.626;23.380;2022-10-22T11:15:55;13.07;;;9.70;;
11076;SDS011;5591;42.626;23.380;2022-10-22T11:18:28;11.23;;;9.37;;
11076;SDS011;5591;42.626;23.380;2022-10-22T11:21:09;14.70;;;9.43;;
11076;SDS011;5591;42.626;23.380;2022-10-22T11:23:43;11.00;;;9.90;;
11076;SDS011;5591;42.626;23.380;2022-10-22T11:26:18;12.17;;;9.30;;
11076;SDS011;5591;42.626;23.380;2022-10-22T11:28:54;10.10;;;8.67;;
11076;SDS011;5591;42.626;23.380;2022-10-22T11:31:25;10.47;;;8.10;;
11076;SDS011;5591;42.626;23.380;2022-10-22T11:33:57;11.03;;;8.80;;
11076;SDS011;5591;42.626;23.380;2022-10-22T11:36:30;11.20;;;8.40;;
11076;SDS011;5591;42.626;23.380;2022-10-22T11:38:57;13.87;;;8.47;;
11076;SDS011;5591;42.626;23.380;2022-10-22T11:41:26;12.57;;;8.77;;
11076;SDS011;5591;42.626;23.380;2022-10-22T11:44:04;11.97;;;8.47;;
11076;SDS011;5591;42.626;23.380;2022-10-22T11:46:39;13.27;;;8.00;;
11076;SDS011;5591;42.626;23.380;2022-10-22T11:49:22;9.70;;;7.80;;
11076;SDS011;5591;42.626;23.380;2022-10-22T11:51:50;11.03;;;8.67;;
11076;SDS011;5591;42.626;23.380;2022-10-22T11:54:31;9.47;;;7.77;;
11076;SDS011;5591;42.626;23.380;2022-10-22T11:57:17;9.83;;;7.90;;
11076;SDS011;5591;42.626;23.380;2022-10-22T11:59:50;11.30;;;8.40;;
11076;SDS011;5591;42.626;23.380;2022-10-22T12:02:22;8.67;;;7.77;;
11076;SDS011;5591;42.626;23.380;2022-10-22T12:08:20;8.80;;;7.90;;
11076;SDS011;5591;42.626;23.380;2022-10-22T12:16:34;11.67;;;7.90;;
11076;SDS011;5591;42.626;23.380;2022-10-22T12:19:05;11.60;;;7.93;;
11076;SDS011;5591;42.626;23.380;2022-10-22T12:21:41;8.90;;;7.97;;
11076;SDS011;5591;42.626;23.380;2022-10-22T12:24:14;9.40;;;7.97;;
11076;SDS011;5591;42.626;23.380;2022-10-22T12:26:43;12.00;;;8.13;;
11076;SDS011;5591;42.626;23.380;2022-10-22T12:29:12;13.43;;;7.73;;
11076;SDS011;5591;42.626;23.380;2022-10-22T12:31:42;9.50;;;7.20;;
11076;SDS011;5591;42.626;23.380;2022-10-22T12:34:12;8.10;;;7.27;;
11076;SDS011;5591;42.626;23.380;2022-10-22T12:36:39;9.73;;;7.50;;
11076;SDS011;5591;42.626;23.380;2022-10-22T12:39:08;10.63;;;7.60;;
11076;SDS011;5591;42.626;23.380;2022-10-22T12:41:40;11.07;;;7.30;;
11076;SDS011;5591;42.626;23.380;2022-10-22T15:31:12;20.83;;;13.07;;
11076;SDS011;5591;42.626;23.380;2022-10-22T15:33:40;14.40;;;10.93;;
11076;SDS011;5591;42.626;23.380;2022-10-22T15:36:08;19.60;;;10.17;;
11076;SDS011;5591;42.626;23.380;2022-10-22T15:38:35;19.40;;;9.63;;
11076;SDS011;5591;42.626;23.380;2022-10-22T15:41:02;19.43;;;10.07;;
11076;SDS011;5591;42.626;23.380;2022-10-22T15:43:30;20.50;;;10.00;;
11076;SDS011;5591;42.626;23.380;2022-10-22T15:46:06;29.77;;;10.53;;
11076;SDS011;5591;42.626;23.380;2022-10-22T15:48:37;24.30;;;10.20;;
11076;SDS011;5591;42.626;23.380;2022-10-22T15:51:08;26.90;;;11.07;;
11076;SDS011;5591;42.626;23.380;2022-10-22T15:53:35;59.47;;;43.07;;
11076;SDS011;5591;42.626;23.380;2022-10-22T15:56:02;24.90;;;12.37;;
11076;SDS011;5591;42.626;23.380;2022-10-22T15:58:29;22.73;;;11.30;;
11076;SDS011;5591;42.626;23.380;2022-10-22T16:01:02;26.63;;;13.53;;
11076;SDS011;5591;42.626;23.380;2022-10-22T16:03:30;15.40;;;11.30;;
11076;SDS011;5591;42.626;23.380;2022-10-22T16:05:58;17.57;;;11.50;;
11076;SDS011;5591;42.626;23.380;2022-10-22T16:08:25;22.13;;;12.93;;
11076;SDS011;5591;42.626;23.380;2022-10-22T16:10:52;16.90;;;11.20;;
11076;SDS011;5591;42.626;23.380;2022-10-22T16:13:19;23.57;;;15.13;;
11076;SDS011;5591;42.626;23.380;2022-10-22T16:15:48;25.43;;;14.43;;
11076;SDS011;5591;42.626;23.380;2022-10-22T16:18:15;16.80;;;9.97;;
11076;SDS011;5591;42.626;23.380;2022-10-22T16:20:43;13.93;;;9.53;;
11076;SDS011;5591;42.626;23.380;2022-10-22T16:23:11;20.00;;;11.50;;
11076;SDS011;5591;42.626;23.380;2022-10-22T16:25:38;17.63;;;11.40;;
11076;SDS011;5591;42.626;23.380;2022-10-22T16:28:06;18.10;;;11.57;;
11076;SDS011;5591;42.626;23.380;2022-10-22T16:30:33;19.83;;;13.50;;
11076;SDS011;5591;42.626;23.380;2022-10-22T16:33:01;19.27;;;13.60;;
11076;SDS011;5591;42.626;23.380;2022-10-22T16:35:29;14.40;;;11.73;;
11076;SDS011;5591;42.626;23.380;2022-10-22T16:37:56;19.27;;;11.57;;
11076;SDS011;5591;42.626;23.380;2022-10-22T16:40:25;15.63;;;11.47;;
11076;SDS011;5591;42.626;23.380;2022-10-22T16:42:53;17.20;;;13.17;;
11076;SDS011;5591;42.626;23.380;2022-10-22T16:45:20;16.43;;;13.07;;
11076;SDS011;5591;42.626;23.380;2022-10-22T16:47:46;17.37;;;12.80;;
11076;SDS011;5591;42.626;23.380;2022-10-22T16:50:14;21.13;;;12.67;;
11076;SDS011;5591;42.626;23.380;2022-10-22T16:52:41;17.47;;;12.87;;
11076;SDS011;5591;42.626;23.380;2022-10-22T16:55:08;19.43;;;13.00;;
11076;SDS011;5591;42.626;23.380;2022-10-22T16:57:36;16.37;;;13.20;;
11076;SDS011;5591;42.626;23.380;2022-10-22T17:00:03;18.63;;;11.17;;
11076;SDS011;5591;42.626;23.380;2022-10-22T17:02:31;14.73;;;9.27;;
11076;SDS011;5591;42.626;23.380;2022-10-22T17:04:59;14.10;;;10.70;;
11076;SDS011;5591;42.626;23.380;2022-10-22T17:07:26;14.60;;;12.00;;
11076;SDS011;5591;42.626;23.380;2022-10-22T17:09:52;19.70;;;11.33;;
11076;SDS011;5591;42.626;23.380;2022-10-22T17:12:19;14.23;;;11.03;;
11076;SDS011;5591;42.626;23.380;2022-10-22T17:14:47;16.60;;;12.00;;
11076;SDS011;5591;42.626;23.380;2022-10-22T17:17:15;17.23;;;12.70;;
11076;SDS011;5591;42.626;23.380;2022-10-22T17:19:42;13.10;;;10.13;;
11076;SDS011;5591;42.626;23.380;2022-10-22T17:22:08;14.57;;;9.80;;
11076;SDS011;5591;42.626;23.380;2022-10-22T17:24:35;13.37;;;10.47;;
11076;SDS011;5591;42.626;23.380;2022-10-22T17:27:02;20.63;;;11.37;;
11076;SDS011;5591;42.626;23.380;2022-10-22T17:29:29;14.77;;;10.57;;
11076;SDS011;5591;42.626;23.380;2022-10-22T17:31:57;17.97;;;10.83;;
11076;SDS011;5591;42.626;23.380;2022-10-22T17:34:25;16.97;;;10.77;;